createdAt,value
2019-03-23T00:00:18.972Z,29.47
2019-03-23T00:02:48.065Z,30.13
2019-03-23T00:05:17.062Z,31.60
2019-03-23T00:07:46.148Z,28.53
2019-03-23T00:10:15.128Z,30.70
2019-03-23T00:12:44.171Z,30.27
2019-03-23T00:15:14.003Z,28.70
2019-03-23T00:17:44.631Z,30.00
2019-03-23T00:20:13.793Z,31.33
2019-03-23T00:22:42.841Z,29.83
2019-03-23T00:25:11.822Z,31.57
2019-03-23T00:27:40.908Z,29.00
2019-03-23T00:30:10.268Z,30.73
2019-03-23T00:32:39.327Z,30.67
2019-03-23T00:35:08.320Z,30.17
2019-03-23T00:37:37.316Z,30.60
2019-03-23T00:40:06.644Z,29.50
2019-03-23T00:42:35.774Z,30.23
2019-03-23T00:45:05.492Z,30.23
2019-03-23T00:47:34.476Z,29.40
2019-03-23T00:50:03.559Z,29.57
2019-03-23T00:52:32.560Z,28.77
2019-03-23T00:55:01.694Z,30.27
2019-03-23T00:57:30.817Z,30.07
2019-03-23T00:59:59.788Z,30.13
2019-03-23T01:02:28.870Z,30.20
2019-03-23T01:04:57.972Z,28.20
2019-03-23T01:07:27.047Z,29.60
2019-03-23T01:09:56.077Z,27.00
2019-03-23T01:12:25.138Z,28.87
2019-03-23T01:14:55.726Z,29.10
2019-03-23T01:17:24.800Z,28.20
2019-03-23T01:19:53.781Z,28.27
2019-03-23T01:22:22.849Z,28.53
2019-03-23T01:24:51.890Z,28.83
2019-03-23T01:27:20.882Z,28.63
2019-03-23T01:29:49.937Z,29.07
2019-03-23T01:32:19.021Z,30.03
2019-03-23T01:34:48.085Z,28.57
2019-03-23T01:37:17.155Z,26.90
2019-03-23T01:39:46.152Z,29.00
2019-03-23T01:42:15.134Z,28.10
2019-03-23T01:44:44.203Z,29.73
2019-03-23T01:47:15.023Z,28.00
2019-03-23T01:49:44.041Z,27.20
2019-03-23T01:52:13.139Z,28.70
2019-03-23T01:54:42.179Z,27.23
2019-03-23T01:57:11.226Z,27.03
2019-03-23T01:59:40.317Z,28.97
2019-03-23T02:02:12.169Z,27.73
2019-03-23T02:04:41.190Z,28.37
2019-03-23T02:07:13.980Z,27.10
2019-03-23T02:09:40.955Z,27.57
2019-03-23T02:12:09.998Z,28.47
2019-03-23T02:14:39.081Z,26.90
2019-03-23T02:17:08.052Z,29.73
2019-03-23T02:19:37.063Z,27.37
2019-03-23T02:22:06.105Z,26.57
2019-03-23T02:24:35.162Z,26.60
2019-03-23T02:27:04.145Z,28.47
2019-03-23T02:29:33.210Z,28.07
2019-03-23T02:32:02.281Z,27.60
2019-03-23T02:34:31.362Z,26.97
2019-03-23T02:37:03.584Z,26.63
2019-03-23T02:39:32.730Z,27.57
2019-03-23T02:42:01.717Z,26.73
2019-03-23T02:44:30.780Z,25.63
2019-03-23T02:46:59.825Z,25.53
2019-03-23T02:49:28.918Z,25.87
2019-03-23T02:51:57.970Z,24.63
2019-03-23T02:54:27.028Z,25.83
2019-03-23T02:56:55.987Z,27.00
2019-03-23T02:59:25.109Z,26.30
2019-03-23T03:01:54.156Z,25.47
2019-03-23T03:04:23.216Z,26.47
2019-03-23T03:06:52.309Z,27.47
2019-03-23T03:09:21.369Z,26.90
2019-03-23T03:11:50.410Z,28.40
2019-03-23T03:14:19.481Z,27.40
2019-03-23T03:16:48.517Z,26.03
2019-03-23T03:19:17.512Z,27.40
2019-03-23T03:21:46.601Z,27.97
2019-03-23T03:24:15.579Z,28.80
2019-03-23T03:26:44.654Z,28.17
2019-03-23T03:29:13.643Z,26.50
2019-03-23T03:31:42.600Z,26.77
2019-03-23T03:34:11.691Z,27.47
2019-03-23T03:36:40.738Z,28.63
2019-03-23T03:39:09.736Z,23.87
2019-03-23T03:41:38.743Z,25.70
2019-03-23T03:44:07.774Z,25.70
2019-03-23T03:46:36.785Z,23.77
2019-03-23T03:49:12.137Z,25.77
2019-03-23T03:51:36.556Z,23.40
2019-03-23T03:54:05.527Z,24.73
2019-03-23T03:56:34.619Z,24.47
2019-03-23T03:59:03.584Z,25.60
2019-03-23T04:01:32.647Z,26.30
2019-03-23T04:04:01.641Z,25.53
2019-03-23T04:06:30.628Z,24.43
2019-03-23T04:08:59.652Z,23.43
2019-03-23T04:11:28.657Z,24.77
2019-03-23T04:13:57.713Z,25.33
2019-03-23T04:16:26.771Z,24.83
2019-03-23T04:18:55.940Z,24.23
2019-03-23T04:21:25.025Z,24.73
2019-03-23T04:23:54.081Z,26.23
2019-03-23T04:26:23.091Z,24.60
2019-03-23T04:28:52.088Z,24.03
2019-03-23T04:31:21.146Z,23.97
2019-03-23T04:33:50.196Z,27.03
2019-03-23T04:36:19.297Z,24.70
2019-03-23T04:38:48.323Z,24.13
2019-03-23T04:41:18.142Z,25.43
2019-03-23T04:43:47.213Z,24.80
2019-03-23T04:46:17.480Z,24.83
2019-03-23T04:48:46.599Z,24.03
2019-03-23T04:51:15.617Z,27.03
2019-03-23T04:53:44.637Z,24.90
2019-03-23T04:56:16.716Z,23.87
2019-03-23T04:58:45.701Z,26.37
2019-03-23T05:01:14.782Z,26.57
2019-03-23T05:03:43.886Z,26.77
2019-03-23T05:06:14.718Z,25.30
2019-03-23T05:08:43.847Z,26.33
2019-03-23T05:11:12.860Z,26.43
2019-03-23T05:13:41.839Z,27.33
2019-03-23T05:16:10.843Z,27.17
2019-03-23T05:18:39.816Z,28.07
2019-03-23T05:21:08.863Z,26.43
2019-03-23T05:23:39.692Z,26.40
2019-03-23T05:26:08.662Z,26.67
2019-03-23T05:28:37.673Z,26.43
2019-03-23T05:31:07.201Z,26.67
2019-03-23T05:33:38.371Z,25.43
2019-03-23T05:36:07.377Z,24.40
2019-03-23T05:38:44.461Z,24.20
2019-03-23T05:41:07.647Z,24.30
2019-03-23T05:43:36.654Z,26.13
2019-03-23T05:46:05.705Z,25.40
2019-03-23T05:48:36.394Z,24.50
2019-03-23T05:51:09.005Z,25.60
2019-03-23T05:53:41.449Z,24.03
2019-03-23T05:56:10.547Z,23.93
2019-03-23T05:58:39.567Z,24.47
2019-03-23T06:01:08.560Z,25.77
2019-03-23T06:03:37.566Z,25.53
2019-03-23T06:06:06.649Z,26.37
2019-03-23T06:08:35.690Z,24.30
2019-03-23T06:11:04.661Z,26.73
2019-03-23T06:13:33.679Z,25.47
2019-03-23T06:16:02.755Z,26.53
2019-03-23T06:18:31.773Z,27.60
2019-03-23T06:21:00.749Z,27.73
2019-03-23T06:23:29.738Z,27.73
2019-03-23T06:25:58.765Z,28.73
2019-03-23T06:28:27.821Z,28.57
2019-03-23T06:30:58.613Z,30.60
2019-03-23T06:33:28.917Z,27.57
2019-03-23T06:35:58.114Z,26.37
2019-03-23T06:38:32.470Z,24.53
2019-03-23T06:41:01.507Z,25.47
2019-03-23T06:43:34.337Z,25.03
2019-03-23T06:46:07.483Z,24.43
2019-03-23T06:48:37.792Z,24.67
2019-03-23T06:51:15.233Z,23.83
2019-03-23T06:53:47.163Z,24.03
2019-03-23T06:56:18.310Z,26.67
2019-03-23T06:58:47.319Z,25.13
2019-03-23T07:01:16.370Z,24.87
2019-03-23T07:03:45.379Z,26.80
2019-03-23T07:06:14.449Z,27.77
2019-03-23T07:08:43.495Z,25.40
2019-03-23T07:11:12.531Z,27.83
2019-03-23T07:13:41.655Z,26.10
2019-03-23T07:16:10.660Z,25.13
2019-03-23T07:18:39.653Z,25.80
2019-03-23T07:21:08.756Z,25.53
2019-03-23T07:23:37.746Z,25.03
2019-03-23T07:26:07.177Z,25.13
2019-03-23T07:28:36.226Z,26.00
2019-03-23T07:31:05.270Z,24.80
2019-03-23T07:33:34.297Z,24.70
2019-03-23T07:36:03.356Z,26.30
2019-03-23T07:38:32.403Z,23.57
2019-03-23T07:41:04.414Z,26.40
2019-03-23T07:43:33.594Z,24.77
2019-03-23T07:46:02.635Z,24.63
2019-03-23T07:48:31.945Z,25.23
2019-03-23T07:51:04.026Z,24.30
2019-03-23T07:53:33.130Z,24.70
2019-03-23T07:56:02.187Z,25.07
2019-03-23T07:58:31.192Z,26.30
2019-03-23T08:01:00.282Z,25.77
2019-03-23T08:03:29.337Z,26.30
2019-03-23T08:05:58.395Z,24.80
2019-03-23T08:08:27.399Z,24.90
2019-03-23T08:10:56.469Z,24.20
2019-03-23T08:13:25.535Z,24.53
2019-03-23T08:15:57.693Z,25.40
2019-03-23T08:18:28.278Z,25.27
2019-03-23T08:20:57.291Z,24.43
2019-03-23T08:23:26.351Z,24.40
2019-03-23T08:25:56.604Z,26.07
2019-03-23T08:28:25.606Z,24.37
2019-03-23T08:31:05.437Z,24.63
2019-03-23T08:33:34.459Z,23.17
2019-03-23T08:36:04.002Z,24.67
2019-03-23T08:38:33.044Z,23.30
2019-03-23T08:41:02.170Z,24.83
2019-03-23T08:43:31.238Z,26.20
2019-03-23T08:46:00.273Z,24.30
2019-03-23T08:48:30.733Z,24.63
2019-03-23T08:50:59.843Z,25.93
2019-03-23T08:53:29.004Z,25.57
2019-03-23T08:55:58.145Z,24.40
2019-03-23T08:58:32.266Z,23.43
2019-03-23T09:01:01.666Z,22.67
2019-03-23T09:03:31.912Z,25.37
2019-03-23T09:06:00.957Z,24.87
2019-03-23T09:08:29.980Z,25.80
2019-03-23T09:10:59.045Z,22.97
2019-03-23T09:13:28.308Z,24.37
2019-03-23T09:16:00.676Z,25.63
2019-03-23T09:18:29.681Z,26.40
2019-03-23T09:20:59.364Z,24.27
2019-03-23T09:23:30.190Z,24.73
2019-03-23T09:25:59.271Z,24.60
2019-03-23T09:28:28.618Z,26.77
2019-03-23T09:31:01.340Z,23.17
2019-03-23T09:33:30.432Z,25.37
2019-03-23T09:36:02.914Z,25.43
2019-03-23T09:38:31.983Z,23.90
2019-03-23T09:41:01.061Z,25.10
2019-03-23T09:43:30.211Z,23.87
2019-03-23T09:45:59.320Z,26.07
2019-03-23T09:48:28.314Z,24.23
2019-03-23T09:50:57.317Z,23.93
2019-03-23T09:53:26.308Z,24.90
2019-03-23T09:55:55.309Z,24.23
2019-03-23T09:58:24.322Z,24.00
2019-03-23T10:00:53.355Z,24.43
2019-03-23T10:03:22.328Z,24.87
2019-03-23T10:05:51.479Z,23.83
2019-03-23T10:08:20.551Z,22.27
2019-03-23T10:10:49.656Z,24.77
2019-03-23T10:13:18.735Z,23.50
2019-03-23T10:15:47.744Z,24.70
2019-03-23T10:18:16.773Z,23.27
2019-03-23T10:20:45.906Z,23.73
2019-03-23T10:23:15.030Z,25.57
2019-03-23T10:25:44.129Z,24.67
2019-03-23T10:28:13.761Z,25.40
2019-03-23T10:30:42.824Z,24.00
2019-03-23T10:33:11.844Z,23.53
2019-03-23T10:35:40.867Z,24.23
2019-03-23T10:38:09.936Z,25.97
2019-03-23T10:40:38.983Z,25.07
2019-03-23T10:43:07.968Z,23.97
2019-03-23T10:45:44.084Z,25.40
2019-03-23T10:48:07.956Z,25.30
2019-03-23T10:50:37.047Z,25.07
2019-03-23T10:53:06.223Z,24.57
2019-03-23T10:55:35.292Z,23.87
2019-03-23T10:58:04.454Z,22.90
2019-03-23T11:00:33.476Z,24.83
2019-03-23T11:03:06.123Z,25.10
2019-03-23T11:05:35.349Z,24.40
2019-03-23T11:08:04.551Z,22.23
2019-03-23T11:10:41.526Z,22.30
2019-03-23T11:13:04.452Z,24.80
2019-03-23T11:15:33.533Z,21.90
2019-03-23T11:18:02.655Z,24.77
2019-03-23T11:20:31.646Z,23.60
2019-03-23T11:23:00.659Z,23.70
2019-03-23T11:25:29.692Z,23.17
2019-03-23T11:27:58.737Z,22.00
2019-03-23T11:30:27.714Z,22.63
2019-03-23T11:32:56.799Z,22.80
2019-03-23T11:35:25.790Z,22.00
2019-03-23T11:37:54.992Z,22.83
2019-03-23T11:40:24.180Z,22.73
2019-03-23T11:42:53.211Z,22.43
2019-03-23T11:45:22.220Z,23.13
2019-03-23T11:47:51.311Z,23.17
2019-03-23T11:50:23.391Z,23.53
2019-03-23T11:52:52.469Z,22.67
2019-03-23T11:55:21.570Z,23.10
2019-03-23T11:57:53.144Z,23.33
2019-03-23T12:00:22.128Z,23.03
2019-03-23T12:02:51.218Z,24.77
2019-03-23T12:05:20.278Z,24.50
2019-03-23T12:07:51.536Z,22.90
2019-03-23T12:10:20.616Z,23.30
2019-03-23T12:12:49.700Z,24.40
2019-03-23T12:15:18.709Z,23.80
2019-03-23T12:17:47.738Z,23.20
2019-03-23T12:20:16.786Z,23.20
2019-03-23T12:22:45.862Z,23.77
2019-03-23T12:25:15.030Z,23.40
2019-03-23T12:27:44.122Z,23.80
2019-03-23T12:30:14.838Z,22.30
2019-03-23T12:32:44.000Z,20.57
2019-03-23T12:35:13.391Z,20.07
2019-03-23T12:37:42.660Z,19.73
2019-03-23T12:40:11.853Z,20.10
2019-03-23T12:42:41.080Z,18.63
2019-03-23T12:45:10.859Z,19.30
2019-03-23T12:47:39.869Z,18.67
2019-03-23T12:50:09.714Z,20.53
2019-03-23T12:52:38.743Z,18.70
2019-03-23T12:55:09.661Z,18.53
2019-03-23T12:57:38.683Z,17.67
2019-03-23T13:00:07.858Z,19.20
2019-03-23T13:02:37.057Z,15.90
2019-03-23T13:05:06.508Z,15.30
2019-03-23T13:07:35.526Z,14.90
2019-03-23T13:10:05.421Z,12.90
2019-03-23T13:12:37.044Z,11.17
2019-03-23T13:15:06.657Z,11.23
2019-03-23T13:17:36.297Z,10.30
2019-03-23T13:20:08.585Z,10.30
2019-03-23T13:22:36.787Z,9.87
2019-03-23T13:25:06.359Z,9.17
2019-03-23T13:27:35.496Z,9.50
2019-03-23T13:30:05.041Z,9.90
2019-03-23T13:32:34.186Z,7.90
2019-03-23T13:35:03.272Z,6.90
2019-03-23T13:37:32.435Z,6.47
2019-03-23T13:40:03.672Z,6.73
2019-03-23T13:42:34.150Z,5.27
2019-03-23T13:45:04.793Z,5.33
2019-03-23T13:47:33.834Z,5.10
2019-03-23T13:50:03.213Z,4.40
2019-03-23T13:52:33.537Z,4.10
2019-03-23T13:55:03.105Z,3.33
2019-03-23T13:57:32.498Z,2.47
2019-03-23T14:00:02.074Z,2.87
2019-03-23T14:02:31.173Z,2.30
2019-03-23T14:05:00.379Z,2.10
2019-03-23T14:07:29.542Z,2.40
2019-03-23T14:09:58.692Z,3.00
2019-03-23T14:12:27.952Z,1.87
2019-03-23T14:14:57.131Z,2.40
2019-03-23T14:17:26.582Z,1.87
2019-03-23T14:19:55.673Z,1.53
2019-03-23T14:22:24.759Z,1.93
2019-03-23T14:24:53.848Z,1.40
2019-03-23T14:27:24.257Z,2.00
2019-03-23T14:29:53.272Z,1.83
2019-03-23T14:32:22.321Z,1.57
2019-03-23T14:34:51.351Z,1.77
2019-03-23T14:37:20.457Z,1.67
2019-03-23T14:39:49.517Z,1.47
2019-03-23T14:42:18.619Z,2.40
2019-03-23T14:44:47.696Z,2.10
2019-03-23T14:47:16.756Z,3.40
2019-03-23T14:49:45.855Z,1.60
2019-03-23T14:52:15.023Z,1.50
2019-03-23T14:54:44.060Z,1.23
2019-03-23T14:57:13.125Z,1.17
2019-03-23T14:59:42.196Z,1.80
2019-03-23T15:02:11.286Z,1.13
2019-03-23T15:04:40.304Z,1.50
2019-03-23T15:07:09.479Z,2.03
2019-03-23T15:09:38.503Z,1.77
2019-03-23T15:12:14.697Z,1.63
2019-03-23T15:14:38.543Z,1.30
2019-03-23T15:17:07.584Z,1.90
2019-03-23T15:19:37.176Z,1.27
2019-03-23T15:22:06.300Z,1.80
2019-03-23T15:24:35.535Z,1.50
2019-03-23T15:27:04.592Z,1.47
2019-03-23T15:29:33.711Z,1.33
2019-03-23T15:32:02.829Z,1.83
2019-03-23T15:34:31.833Z,1.07
2019-03-23T15:37:00.968Z,2.13
2019-03-23T15:39:29.988Z,1.50
2019-03-23T15:42:02.044Z,1.60
2019-03-23T15:44:31.156Z,2.20
2019-03-23T15:47:00.252Z,1.50
2019-03-23T15:49:29.370Z,2.10
2019-03-23T15:51:58.370Z,2.07
2019-03-23T15:54:27.402Z,1.87
2019-03-23T15:56:56.646Z,1.33
2019-03-23T15:59:25.737Z,1.70
2019-03-23T16:01:54.849Z,1.67
2019-03-23T16:04:23.956Z,2.07
2019-03-23T16:06:53.024Z,1.90
2019-03-23T16:09:22.146Z,1.80
2019-03-23T16:11:51.167Z,2.00
2019-03-23T16:14:20.226Z,1.97
2019-03-23T16:16:52.365Z,1.43
2019-03-23T16:19:21.438Z,1.90
2019-03-23T16:21:50.509Z,2.00
2019-03-23T16:24:19.500Z,1.83
2019-03-23T16:26:48.668Z,1.70
2019-03-23T16:29:17.772Z,1.40
2019-03-23T16:31:46.936Z,2.07
2019-03-23T16:34:16.081Z,2.23
2019-03-23T16:36:45.142Z,1.57
2019-03-23T16:39:14.328Z,1.90
2019-03-23T16:41:43.400Z,1.90
2019-03-23T16:44:15.468Z,1.63
2019-03-23T16:46:44.528Z,1.73
2019-03-23T16:49:14.132Z,1.80
2019-03-23T16:51:43.153Z,2.50
2019-03-23T16:54:12.251Z,1.70
2019-03-23T16:56:44.037Z,1.67
2019-03-23T16:59:13.078Z,1.50
2019-03-23T17:01:42.111Z,1.50
2019-03-23T17:04:11.157Z,1.77
2019-03-23T17:06:46.225Z,1.70
2019-03-23T17:09:13.287Z,2.03
2019-03-23T17:11:42.404Z,1.50
2019-03-23T17:14:11.394Z,2.40
2019-03-23T17:16:40.443Z,2.20
2019-03-23T17:19:09.487Z,2.00
2019-03-23T17:21:38.691Z,2.73
2019-03-23T17:24:07.698Z,2.03
2019-03-23T17:26:36.693Z,2.27
2019-03-23T17:29:09.657Z,2.43
2019-03-23T17:31:38.424Z,2.30
2019-03-23T17:34:07.707Z,2.67
2019-03-23T17:36:36.796Z,2.63
2019-03-23T17:39:06.475Z,2.57
2019-03-23T17:41:35.617Z,2.53
2019-03-23T17:44:07.875Z,2.37
2019-03-23T17:46:37.184Z,2.43
2019-03-23T17:49:06.302Z,2.73
2019-03-23T17:51:35.463Z,2.13
2019-03-23T17:54:04.504Z,2.83
2019-03-23T17:56:33.591Z,2.93
2019-03-23T17:59:02.748Z,3.13
2019-03-23T18:01:31.833Z,2.83
2019-03-23T18:04:00.833Z,2.63
2019-03-23T18:06:29.837Z,3.23
2019-03-23T18:08:58.910Z,2.90
2019-03-23T18:11:27.920Z,2.30
2019-03-23T18:13:57.077Z,3.90
2019-03-23T18:16:26.080Z,2.77
2019-03-23T18:18:55.127Z,2.23
2019-03-23T18:21:24.260Z,2.40
2019-03-23T18:23:53.332Z,2.13
2019-03-23T18:26:22.390Z,2.30
2019-03-23T18:28:51.457Z,2.73
2019-03-23T18:31:20.541Z,2.63
2019-03-23T18:33:49.645Z,2.47
2019-03-23T18:36:20.015Z,3.97
2019-03-23T18:38:49.035Z,2.77
2019-03-23T18:41:18.114Z,2.03
2019-03-23T18:43:47.291Z,2.30
2019-03-23T18:46:16.343Z,2.20
2019-03-23T18:48:45.346Z,1.80
2019-03-23T18:51:14.673Z,2.47
2019-03-23T18:53:43.750Z,2.33
2019-03-23T18:56:12.760Z,2.70
2019-03-23T18:58:41.820Z,2.50
2019-03-23T19:01:10.905Z,3.63
2019-03-23T19:03:40.476Z,2.93
2019-03-23T19:06:09.664Z,3.13
2019-03-23T19:08:38.920Z,2.87
2019-03-23T19:11:08.065Z,2.07
2019-03-23T19:13:38.157Z,2.27
2019-03-23T19:16:07.415Z,2.40
2019-03-23T19:18:36.550Z,3.07
2019-03-23T19:21:05.921Z,2.80
2019-03-23T19:23:34.974Z,4.20
2019-03-23T19:26:04.241Z,2.77
2019-03-23T19:28:33.250Z,3.30
2019-03-23T19:31:02.293Z,2.80
2019-03-23T19:33:31.383Z,3.27
2019-03-23T19:36:00.476Z,2.90
2019-03-23T19:38:29.521Z,3.83
2019-03-23T19:40:59.138Z,4.50
2019-03-23T19:43:28.210Z,5.33
2019-03-23T19:45:57.311Z,11.57
2019-03-23T19:48:27.526Z,7.80
2019-03-23T19:50:56.706Z,3.80
2019-03-23T19:53:25.745Z,4.37
2019-03-23T19:55:54.765Z,5.10
2019-03-23T19:58:23.880Z,7.30
2019-03-23T20:00:53.018Z,4.30
2019-03-23T20:03:23.559Z,4.23
2019-03-23T20:05:53.802Z,4.33
2019-03-23T20:08:22.934Z,4.13
2019-03-23T20:11:01.201Z,5.13
2019-03-23T20:13:30.490Z,4.37
2019-03-23T20:15:59.700Z,3.53
2019-03-23T20:18:29.060Z,3.27
2019-03-23T20:20:58.246Z,3.03
2019-03-23T20:23:27.456Z,3.73
2019-03-23T20:25:56.614Z,2.87
2019-03-23T20:28:25.743Z,3.33
2019-03-23T20:30:54.918Z,4.30
2019-03-23T20:33:24.152Z,3.47
2019-03-23T20:35:53.337Z,4.40
2019-03-23T20:38:22.752Z,4.10
2019-03-23T20:40:51.902Z,3.83
2019-03-23T20:43:21.100Z,3.53
2019-03-23T20:45:50.251Z,3.43
2019-03-23T20:48:19.339Z,3.43
2019-03-23T20:50:49.811Z,3.40
2019-03-23T20:53:19.226Z,3.43
2019-03-23T20:55:48.348Z,3.13
2019-03-23T20:58:17.535Z,3.07
2019-03-23T21:00:46.622Z,3.87
2019-03-23T21:03:16.134Z,5.63
2019-03-23T21:05:45.279Z,4.90
2019-03-23T21:08:33.229Z,3.57
2019-03-23T21:11:02.327Z,4.30
2019-03-23T21:13:31.425Z,4.87
2019-03-23T21:16:00.561Z,4.20
2019-03-23T21:18:29.708Z,3.73
2019-03-23T21:20:58.872Z,3.40
2019-03-23T21:23:28.009Z,3.90
2019-03-23T21:25:57.309Z,4.03
2019-03-23T21:28:26.415Z,2.57
2019-03-23T21:30:55.550Z,3.17
2019-03-23T21:33:24.633Z,3.73
2019-03-23T21:35:53.705Z,4.07
2019-03-23T21:38:22.736Z,4.33
2019-03-23T21:40:51.823Z,3.83
2019-03-23T21:43:20.907Z,4.40
2019-03-23T21:45:49.999Z,3.70
2019-03-23T21:48:19.112Z,2.90
2019-03-23T21:50:48.174Z,3.27
2019-03-23T21:53:17.247Z,3.47
2019-03-23T21:55:46.320Z,3.83
2019-03-23T21:58:15.393Z,3.40
2019-03-23T22:00:44.520Z,4.00
2019-03-23T22:03:13.522Z,3.60
2019-03-23T22:05:42.658Z,3.67
2019-03-23T22:08:11.651Z,3.70
2019-03-23T22:10:40.723Z,3.50
2019-03-23T22:13:09.803Z,3.20
2019-03-23T22:15:38.800Z,3.20
2019-03-23T22:18:07.894Z,2.67
2019-03-23T22:20:36.897Z,3.07
2019-03-23T22:23:05.930Z,3.40
2019-03-23T22:25:35.036Z,3.00
2019-03-23T22:28:04.177Z,2.60
2019-03-23T22:30:33.315Z,3.30
2019-03-23T22:33:02.532Z,3.70
2019-03-23T22:35:31.527Z,4.13
2019-03-23T22:38:00.736Z,3.87
2019-03-23T22:40:29.779Z,4.13
2019-03-23T22:42:58.786Z,3.50
2019-03-23T22:45:27.964Z,3.73
2019-03-23T22:47:58.980Z,3.80
2019-03-23T22:50:27.758Z,3.90
2019-03-23T22:52:56.778Z,4.53
2019-03-23T22:55:25.858Z,3.07
2019-03-23T22:57:54.904Z,3.90
2019-03-23T23:00:44.270Z,3.63
2019-03-23T23:03:13.964Z,4.30
2019-03-23T23:05:42.975Z,4.13
2019-03-23T23:08:11.986Z,4.13
2019-03-23T23:10:41.055Z,4.10
2019-03-23T23:13:10.105Z,4.40
2019-03-23T23:15:39.106Z,3.80
2019-03-23T23:18:08.129Z,4.17
2019-03-23T23:20:37.171Z,3.43
2019-03-23T23:23:06.201Z,3.57
2019-03-23T23:25:35.280Z,3.63
2019-03-23T23:28:04.355Z,3.93
2019-03-23T23:30:33.417Z,3.90
2019-03-23T23:33:02.477Z,4.80
2019-03-23T23:35:31.571Z,3.13
2019-03-23T23:38:00.532Z,4.93
2019-03-23T23:40:29.587Z,3.50
2019-03-23T23:42:58.585Z,3.53
2019-03-23T23:45:27.646Z,3.80
2019-03-23T23:47:56.794Z,3.40
2019-03-23T23:50:25.798Z,3.73
2019-03-23T23:52:54.893Z,2.97
2019-03-23T23:55:23.899Z,3.73
2019-03-23T23:57:52.906Z,3.87
